Decoded Metar for KNRB (MAYPORT NAS in FL, USA) (IATA:NRB) | Meteo·Mobile Aviation Weather
aviador You're here:

KNRB Decoded Metar

MAYPORT NAS in FL, USA
Report Time2019-04-23 14:52:00
UTC Time2019-04-23 15:53:26
Flight Rules vfr VFR
WindVRB at 05 kt
Visibility9999 m
Phenomena:N/A
Clouds:Broken 250 Hf
Expected CloudBase > 4,800 ft AGL from Temp-Dew spread
Ceiling25,000 ft
Temp24°C (ISA +9)
Dew Point12°C (47% RH)
AAT22.8°C
QNH1021 hPa
Density Alt984 ft
Elevation16 ft
Report Wrong Elevation
Raw Report
KNRB 231452Z VRB05KT 10SM BKN250 24/12 A3016 RMK AO2 SLP212
T02440122 52008=

Extra information for KNRB:More info

Metar Taf Metar & Taf Last 4 Metars F.Rules Stats Wind Profile Meteogram Temp Stats Airport Information Weather charts Add Link Nearby VenuesMetar ALERT Operation Metar Decoded Social comments

AIRNAV info for KNRB